Terminal Aerodrome Forecast
Issued by NWS

Home | Current Version | Previous Version | Graphics & Text | Print | Product List | Glossary On
Versions: 1 2 3 4 5 6 7 8 9 10 11 12 13 14 15 16 17 18 19 20 21 22 23 24 25 26 27 28 29 30 31 32 33 34 35 36 37 38 39 40 41
000
FTUS43 KGRB 220500
TAFRHI
TAF
KRHI 220536Z 2206/2306 16009KT 6SM BR SCT006 OVC012
      TEMPO 2206/2210 1 1/2SM -FZDZSN BR OVC006
     FM221000 16009KT 4SM BR SCT004 OVC010
      TEMPO 2210/2214 1 1/2SM -FZDZSN BR OVC004
     FM221600 13008KT 5SM BR OVC006
     FM221900 12008KT 6SM BR OVC010
     FM230400 09007KT 2SM -SN OVC012=

USA.gov is the U.S. government's official web portal to all federal, state and local government web resources and services.